createdAt,value
2023-05-01T02:53:45.568Z,0.00
2023-05-01T02:54:45.373Z,0.00
2023-05-01T02:55:45.148Z,0.00
2023-05-01T02:56:45.091Z,0.00
2023-05-01T02:57:45.008Z,0.00
2023-05-01T02:58:45.019Z,0.00
2023-05-01T02:59:45.047Z,0.00
2023-05-01T03:00:45.155Z,0.00
2023-05-01T03:01:45.170Z,0.00
2023-05-01T03:02:45.050Z,0.00
2023-05-01T03:03:44.970Z,0.00
2023-05-01T03:04:45.044Z,0.00
2023-05-01T03:05:44.996Z,0.00
2023-05-01T03:06:45.274Z,0.00
2023-05-01T03:07:44.961Z,0.00
2023-05-01T03:08:44.970Z,0.00
2023-05-01T03:09:44.929Z,0.00
2023-05-01T03:10:44.951Z,0.00
2023-05-01T03:11:44.922Z,0.00
2023-05-01T03:12:44.958Z,0.00
2023-05-01T03:13:44.953Z,0.00
2023-05-01T03:14:44.884Z,0.00
2023-05-01T03:15:44.915Z,0.00
2023-05-01T03:16:44.964Z,0.00
2023-05-01T03:17:44.906Z,0.00
2023-05-01T03:18:44.884Z,0.00
2023-05-01T03:19:44.873Z,0.00
2023-05-01T03:20:44.870Z,0.00
2023-05-01T03:21:44.846Z,0.00
2023-05-01T03:22:44.828Z,0.00
2023-05-01T03:23:44.851Z,0.00
2023-05-01T03:24:44.801Z,0.00
2023-05-01T03:25:44.800Z,0.00
2023-05-01T03:26:44.796Z,0.00
2023-05-01T03:27:44.777Z,0.00
2023-05-01T03:28:44.823Z,0.00
2023-05-01T03:29:44.789Z,0.00
2023-05-01T03:30:44.792Z,0.00
2023-05-01T03:31:44.806Z,0.00
2023-05-01T03:32:44.866Z,0.00
2023-05-01T03:33:44.706Z,0.00
2023-05-01T03:34:44.723Z,0.00
2023-05-01T03:35:44.816Z,0.00
2023-05-01T03:36:44.786Z,0.00
2023-05-01T03:37:44.704Z,0.00
2023-05-01T03:38:44.705Z,0.00
2023-05-01T03:39:44.681Z,0.00
2023-05-01T03:40:44.714Z,0.00
2023-05-01T03:41:44.686Z,0.00
2023-05-01T03:42:44.694Z,0.00
2023-05-01T03:43:44.706Z,0.00
2023-05-01T03:44:44.655Z,0.00
2023-05-01T03:45:45.049Z,0.00
2023-05-01T03:46:45.825Z,0.00
2023-05-01T03:47:44.674Z,0.00
2023-05-01T03:48:44.609Z,0.00
2023-05-01T03:49:44.663Z,0.00
2023-05-01T03:50:44.634Z,0.00
2023-05-01T03:51:44.593Z,0.00
2023-05-01T03:52:44.596Z,0.00
2023-05-01T03:53:44.606Z,0.00
2023-05-01T03:54:44.573Z,0.00
2023-05-01T03:55:44.580Z,0.00
2023-05-01T03:56:44.566Z,0.00
2023-05-01T03:57:44.601Z,0.00
2023-05-01T03:58:44.552Z,0.00
2023-05-01T03:59:44.572Z,0.00
2023-05-01T04:00:44.595Z,0.00
2023-05-01T04:01:44.536Z,0.00
2023-05-01T04:02:44.603Z,0.00
2023-05-01T04:03:44.665Z,0.00
2023-05-01T04:04:44.523Z,0.00
2023-05-01T04:05:44.588Z,0.00
2023-05-01T04:06:44.530Z,0.00
2023-05-01T04:07:44.497Z,0.00
2023-05-01T04:08:44.491Z,0.00
2023-05-01T04:09:44.515Z,0.00
2023-05-01T04:10:44.564Z,0.00
2023-05-01T04:11:44.511Z,0.00
2023-05-01T04:12:44.484Z,0.00
2023-05-01T04:13:44.505Z,0.00
2023-05-01T04:14:44.470Z,0.00
2023-05-01T04:15:44.526Z,0.00
2023-05-01T04:16:44.430Z,0.00
2023-05-01T04:17:44.492Z,0.00
2023-05-01T04:18:44.455Z,0.00
2023-05-01T04:19:44.436Z,0.00
2023-05-01T04:20:44.426Z,0.00
2023-05-01T04:21:44.422Z,0.00
2023-05-01T04:22:44.411Z,0.00
2023-05-01T04:23:44.405Z,0.00
2023-05-01T04:24:44.401Z,0.00
2023-05-01T04:25:44.556Z,0.00
2023-05-01T04:26:44.365Z,0.00
2023-05-01T04:27:44.386Z,0.00
2023-05-01T04:28:44.398Z,0.00
2023-05-01T04:29:44.334Z,0.00
2023-05-01T04:30:44.313Z,0.00
2023-05-01T04:31:44.365Z,0.00
2023-05-01T04:32:44.362Z,0.00
2023-05-01T04:33:44.349Z,0.00
2023-05-01T04:34:44.315Z,0.00
2023-05-01T04:35:44.302Z,0.00
2023-05-01T04:36:44.283Z,0.00
2023-05-01T04:37:44.315Z,0.00
2023-05-01T04:38:44.298Z,0.00
2023-05-01T04:39:44.282Z,0.00
2023-05-01T04:40:44.262Z,0.00
2023-05-01T04:41:44.319Z,0.00
2023-05-01T04:42:44.239Z,5.62
2023-05-01T04:43:44.248Z,5.62
2023-05-01T04:44:44.251Z,5.62
2023-05-01T04:45:44.208Z,5.62
2023-05-01T04:46:44.320Z,5.62
2023-05-01T04:47:44.319Z,5.62
2023-05-01T04:48:44.203Z,5.62
2023-05-01T04:49:44.222Z,5.62
2023-05-01T04:50:44.196Z,5.62
2023-05-01T04:51:44.244Z,5.62
2023-05-01T04:52:44.178Z,5.62
2023-05-01T04:53:44.188Z,5.62
2023-05-01T04:54:45.234Z,5.62
2023-05-01T04:55:44.582Z,5.62
2023-05-01T04:56:44.501Z,5.62
2023-05-01T04:57:44.466Z,5.62
2023-05-01T04:58:44.496Z,5.62
2023-05-01T04:59:44.524Z,5.62
2023-05-01T05:00:44.613Z,5.62
2023-05-01T05:01:45.144Z,5.62
2023-05-01T05:02:46.188Z,5.62
2023-05-01T05:03:45.025Z,5.62
2023-05-01T05:04:44.149Z,5.62
2023-05-01T05:05:44.308Z,5.62
2023-05-01T05:06:44.508Z,5.62
2023-05-01T05:07:44.088Z,5.62
2023-05-01T05:08:44.118Z,5.62
2023-05-01T05:09:44.161Z,5.62
2023-05-01T05:10:44.184Z,5.62
2023-05-01T05:11:44.225Z,5.62
2023-05-01T05:12:44.291Z,5.62
2023-05-01T05:13:44.223Z,5.62
2023-05-01T05:14:44.371Z,5.62
2023-05-01T05:15:44.206Z,5.62
2023-05-01T05:16:44.398Z,5.62
2023-05-01T05:17:44.164Z,5.62
2023-05-01T05:18:44.197Z,11.25
2023-05-01T05:19:44.216Z,11.25
2023-05-01T05:20:44.747Z,11.25
2023-05-01T05:21:44.504Z,11.25
2023-05-01T05:22:44.085Z,11.25
2023-05-01T05:23:44.025Z,11.25
2023-05-01T05:24:44.006Z,11.25
2023-05-01T05:25:44.077Z,11.25
2023-05-01T05:26:44.085Z,11.25
2023-05-01T05:27:44.010Z,11.25
2023-05-01T05:28:43.942Z,11.25
2023-05-01T05:29:43.990Z,11.25
2023-05-01T05:30:44.055Z,11.25
2023-05-01T05:31:43.999Z,11.25
2023-05-01T05:32:44.047Z,11.25
2023-05-01T05:33:43.955Z,11.25
2023-05-01T05:34:43.983Z,11.25
2023-05-01T05:35:45.014Z,11.25
2023-05-01T05:36:44.015Z,11.25
2023-05-01T05:37:45.920Z,16.88
2023-05-01T05:38:45.016Z,16.88
2023-05-01T05:39:43.892Z,16.88
2023-05-01T05:40:44.311Z,16.88
2023-05-01T05:41:43.954Z,16.88
2023-05-01T05:42:43.805Z,16.88
2023-05-01T05:43:44.024Z,16.88
2023-05-01T05:44:43.912Z,16.88
2023-05-01T05:45:43.965Z,16.88
2023-05-01T05:46:44.050Z,16.88
2023-05-01T05:47:44.000Z,16.88
2023-05-01T05:48:43.864Z,16.88
2023-05-01T05:49:43.868Z,16.88
2023-05-01T05:50:43.888Z,16.88
2023-05-01T05:51:43.934Z,16.88
2023-05-01T05:52:43.815Z,16.88
2023-05-01T05:53:43.815Z,22.50
2023-05-01T05:54:43.774Z,22.50
2023-05-01T05:55:43.787Z,22.50
2023-05-01T05:56:49.565Z,22.50
2023-05-01T05:57:45.010Z,22.50
2023-05-01T05:58:46.169Z,16.88
2023-05-01T05:59:43.754Z,16.88
2023-05-01T06:00:43.754Z,16.88
2023-05-01T06:01:53.981Z,16.88
2023-05-01T06:02:46.491Z,16.88
2023-05-01T06:04:00.880Z,22.50
2023-05-01T06:04:45.763Z,22.50
2023-05-01T06:05:44.169Z,22.50
2023-05-01T06:06:44.290Z,22.50
2023-05-01T06:07:43.870Z,22.50
2023-05-01T06:08:43.710Z,22.50
2023-05-01T06:09:43.844Z,22.50
2023-05-01T06:10:43.659Z,22.50
2023-05-01T06:11:43.751Z,22.50
2023-05-01T06:12:47.761Z,22.50
2023-05-01T06:13:44.693Z,22.50
2023-05-01T06:14:43.615Z,22.50
2023-05-01T06:15:43.715Z,22.50
2023-05-01T06:16:43.649Z,22.50
2023-05-01T06:17:43.658Z,22.50
2023-05-01T06:18:45.703Z,28.12
2023-05-01T06:19:44.584Z,28.12
2023-05-01T06:20:43.578Z,28.12
2023-05-01T06:21:43.649Z,28.12
2023-05-01T06:22:43.663Z,28.12
2023-05-01T06:23:43.559Z,28.12
2023-05-01T06:24:43.637Z,28.12
2023-05-01T06:25:43.644Z,28.12
2023-05-01T06:26:43.646Z,22.50
2023-05-01T06:27:43.526Z,22.50
2023-05-01T06:28:43.533Z,28.12
2023-05-01T06:29:43.581Z,28.12
2023-05-01T06:30:46.226Z,28.12
2023-05-01T06:31:43.553Z,28.12
2023-05-01T06:32:43.513Z,28.12
2023-05-01T06:33:43.497Z,28.12
2023-05-01T06:34:43.521Z,28.12
2023-05-01T06:35:43.522Z,28.12
2023-05-01T06:36:43.441Z,28.12
2023-05-01T06:37:43.414Z,28.12
2023-05-01T06:38:43.500Z,28.12
2023-05-01T06:39:43.425Z,28.12
2023-05-01T06:40:43.461Z,28.12
2023-05-01T06:41:43.377Z,28.12
2023-05-01T06:42:43.403Z,28.12
2023-05-01T06:43:43.376Z,28.12
2023-05-01T06:44:43.394Z,33.75
2023-05-01T06:45:43.365Z,33.75
2023-05-01T06:46:43.401Z,33.75
2023-05-01T06:47:43.390Z,28.12
2023-05-01T06:48:43.372Z,33.75
2023-05-01T06:49:43.398Z,28.12
2023-05-01T06:50:43.378Z,33.75
2023-05-01T06:51:43.361Z,28.12
2023-05-01T06:52:43.357Z,33.75
2023-05-01T06:53:43.297Z,33.75
2023-05-01T06:54:43.293Z,33.75
2023-05-01T06:55:43.324Z,28.12
2023-05-01T06:56:43.322Z,28.12
2023-05-01T06:57:43.291Z,28.12
2023-05-01T06:58:43.304Z,28.12
2023-05-01T06:59:43.296Z,28.12
2023-05-01T07:00:43.287Z,33.75
2023-05-01T07:01:43.359Z,33.75
2023-05-01T07:02:43.482Z,33.75
2023-05-01T07:03:43.349Z,33.75
2023-05-01T07:04:43.246Z,33.75
2023-05-01T07:05:43.257Z,33.75
2023-05-01T07:06:43.299Z,33.75
2023-05-01T07:07:50.496Z,33.75
2023-05-01T07:08:44.246Z,33.75
2023-05-01T07:09:43.325Z,33.75
2023-05-01T07:10:43.227Z,33.75
2023-05-01T07:11:43.270Z,33.75
2023-05-01T07:12:43.243Z,33.75
2023-05-01T07:13:43.212Z,33.75
2023-05-01T07:14:43.254Z,33.75
2023-05-01T07:15:43.176Z,33.75
2023-05-01T07:16:43.238Z,33.75
2023-05-01T07:17:43.232Z,33.75
2023-05-01T07:18:43.220Z,33.75
2023-05-01T07:19:43.144Z,33.75
2023-05-01T07:20:43.154Z,33.75
2023-05-01T07:21:43.192Z,33.75
2023-05-01T07:22:43.161Z,33.75
2023-05-01T07:23:43.144Z,33.75
2023-05-01T07:24:43.111Z,33.75
2023-05-01T07:25:43.099Z,33.75
2023-05-01T07:26:43.110Z,33.75
2023-05-01T07:27:43.103Z,33.75
2023-05-01T07:28:43.090Z,33.75
2023-05-01T07:29:43.076Z,33.75
2023-05-01T07:30:43.061Z,33.75
2023-05-01T07:31:43.142Z,33.75
2023-05-01T07:32:43.129Z,33.75
2023-05-01T07:33:43.063Z,33.75
2023-05-01T07:34:43.032Z,33.75
2023-05-01T07:35:43.061Z,33.75
2023-05-01T07:36:43.037Z,33.75
2023-05-01T07:37:43.057Z,33.75
2023-05-01T07:38:43.046Z,33.75
2023-05-01T07:39:43.026Z,33.75
2023-05-01T07:40:43.030Z,33.75
2023-05-01T07:41:42.996Z,33.75
2023-05-01T07:42:42.997Z,33.75
2023-05-01T07:43:42.963Z,33.75
2023-05-01T07:44:43.008Z,33.75
2023-05-01T07:45:43.218Z,33.75
2023-05-01T07:46:43.026Z,33.75
2023-05-01T07:47:43.067Z,33.75
2023-05-01T07:48:42.933Z,33.75
2023-05-01T07:49:42.917Z,33.75
2023-05-01T07:50:42.912Z,33.75
2023-05-01T07:51:42.929Z,33.75
2023-05-01T07:52:42.971Z,33.75
2023-05-01T07:53:42.922Z,33.75
2023-05-01T07:54:42.918Z,39.38
2023-05-01T07:55:42.895Z,39.38
2023-05-01T07:56:42.881Z,39.38
2023-05-01T07:57:42.923Z,39.38
2023-05-01T07:58:42.934Z,39.38
2023-05-01T07:59:42.847Z,45.00
2023-05-01T08:00:42.884Z,45.00
2023-05-01T08:01:42.857Z,45.00
2023-05-01T08:02:42.857Z,45.00
2023-05-01T08:03:42.868Z,45.00
2023-05-01T08:04:42.895Z,45.00
2023-05-01T08:05:42.826Z,45.00
2023-05-01T08:06:42.839Z,45.00
2023-05-01T08:07:42.838Z,45.00
2023-05-01T08:08:42.785Z,45.00
2023-05-01T08:09:42.766Z,45.00
2023-05-01T08:10:42.775Z,45.00
2023-05-01T08:11:42.859Z,45.00
2023-05-01T08:12:42.756Z,45.00
2023-05-01T08:13:42.827Z,45.00
2023-05-01T08:14:42.769Z,45.00
2023-05-01T08:15:42.796Z,50.62
2023-05-01T08:16:42.789Z,50.62
2023-05-01T08:17:42.818Z,50.62
2023-05-01T08:18:42.777Z,50.62
2023-05-01T08:19:42.742Z,56.25
2023-05-01T08:20:42.695Z,50.62
2023-05-01T08:21:42.719Z,50.62
2023-05-01T08:22:42.726Z,50.62
2023-05-01T08:23:42.742Z,50.62
2023-05-01T08:24:42.703Z,50.62
2023-05-01T08:25:42.694Z,45.00
2023-05-01T08:26:42.724Z,50.62
2023-05-01T08:27:42.687Z,50.62
2023-05-01T08:28:42.658Z,45.00
2023-05-01T08:29:42.647Z,45.00
2023-05-01T08:30:42.625Z,45.00
2023-05-01T08:31:42.749Z,45.00
2023-05-01T08:32:42.719Z,45.00
2023-05-01T08:33:42.639Z,45.00
2023-05-01T08:34:42.673Z,45.00
2023-05-01T08:35:42.569Z,45.00
2023-05-01T08:36:42.661Z,45.00
2023-05-01T08:37:42.630Z,50.62
2023-05-01T08:38:42.604Z,50.62
2023-05-01T08:39:42.567Z,50.62
2023-05-01T08:40:42.566Z,50.62
2023-05-01T08:41:42.652Z,50.62
2023-05-01T08:42:42.614Z,50.62
2023-05-01T08:43:42.594Z,50.62
2023-05-01T08:44:42.608Z,56.25
2023-05-01T08:45:42.557Z,56.25
2023-05-01T08:46:42.566Z,56.25
2023-05-01T08:47:42.587Z,56.25
2023-05-01T08:48:42.636Z,56.25
2023-05-01T08:49:42.569Z,56.25
2023-05-01T08:50:42.496Z,56.25
2023-05-01T08:51:42.495Z,61.88
2023-05-01T08:52:42.541Z,61.88
2023-05-01T08:53:42.489Z,61.88
2023-05-01T08:54:42.480Z,67.50
2023-05-01T08:55:42.528Z,67.50
2023-05-01T08:56:42.487Z,67.50
2023-05-01T08:57:42.466Z,67.50
2023-05-01T08:58:42.529Z,67.50
2023-05-01T08:59:42.463Z,67.50
2023-05-01T09:00:42.389Z,67.50
2023-05-01T09:01:42.542Z,67.50
2023-05-01T09:02:42.489Z,61.88
2023-05-01T09:03:42.498Z,39.38
2023-05-01T09:04:42.410Z,56.25
2023-05-01T09:05:42.350Z,39.38
2023-05-01T09:06:42.844Z,39.38
2023-05-01T09:07:42.373Z,39.38
2023-05-01T09:08:42.370Z,39.38
2023-05-01T09:09:42.328Z,39.38
2023-05-01T09:10:42.422Z,39.38
2023-05-01T09:11:45.615Z,39.38
2023-05-01T09:12:44.036Z,33.75
2023-05-01T09:13:42.378Z,33.75
2023-05-01T09:14:42.319Z,39.38
2023-05-01T09:15:42.397Z,33.75
2023-05-01T09:16:42.333Z,33.75
2023-05-01T09:17:42.379Z,39.38
2023-05-01T09:18:42.341Z,39.38
2023-05-01T09:19:42.277Z,33.75
2023-05-01T09:20:42.291Z,39.38
2023-05-01T09:21:42.298Z,39.38
2023-05-01T09:22:42.278Z,33.75
2023-05-01T09:23:42.325Z,33.75
2023-05-01T09:24:42.277Z,33.75
2023-05-01T09:25:42.232Z,33.75
2023-05-01T09:26:42.248Z,39.38
2023-05-01T09:27:42.222Z,39.38
2023-05-01T09:28:42.424Z,39.38
2023-05-01T09:29:42.252Z,39.38
2023-05-01T09:30:42.193Z,45.00
2023-05-01T09:31:42.290Z,45.00
2023-05-01T09:32:43.200Z,50.62
2023-05-01T20:02:01.094Z,0.00
2023-05-01T20:02:59.471Z,0.00
2023-05-01T20:03:59.296Z,0.00
2023-05-01T20:04:59.059Z,0.00
2023-05-01T20:05:59.045Z,0.00
2023-05-01T20:06:58.997Z,0.00
2023-05-01T20:07:58.966Z,0.00
2023-05-01T20:08:58.971Z,0.00
2023-05-01T20:09:59.201Z,0.00
2023-05-01T20:10:59.016Z,0.00
2023-05-01T20:11:59.090Z,0.00
2023-05-01T20:12:58.974Z,0.00
2023-05-01T20:13:58.925Z,0.00
2023-05-01T20:14:58.883Z,0.00
2023-05-01T20:15:58.931Z,0.00
2023-05-01T20:16:58.963Z,0.00
2023-05-01T20:17:58.951Z,0.00
2023-05-01T20:18:58.886Z,0.00
2023-05-01T20:19:59.027Z,0.00
2023-05-01T20:20:58.906Z,0.00
2023-05-01T20:21:58.887Z,0.00
2023-05-01T20:22:58.867Z,0.00
2023-05-01T20:23:58.887Z,0.00
2023-05-01T20:24:58.885Z,0.00
2023-05-01T20:25:58.821Z,0.00
2023-05-01T20:26:58.833Z,0.00
2023-05-01T20:27:58.819Z,0.00
2023-05-01T20:28:58.833Z,0.00
2023-05-01T20:29:59.156Z,0.00
2023-05-01T20:30:58.836Z,0.00
2023-05-01T20:31:58.808Z,0.00
2023-05-01T20:32:58.802Z,0.00
2023-05-01T20:33:58.798Z,0.00
2023-05-01T20:34:58.804Z,0.00
2023-05-01T20:35:58.752Z,0.00
2023-05-01T20:36:58.811Z,0.00
2023-05-01T20:37:58.766Z,0.00
2023-05-01T20:38:58.768Z,0.00
2023-05-01T20:39:59.044Z,0.00
2023-05-01T20:40:58.751Z,0.00
2023-05-01T20:41:58.756Z,0.00
2023-05-01T20:42:58.732Z,0.00
2023-05-01T20:43:58.738Z,0.00
2023-05-01T20:44:58.702Z,0.00
2023-05-01T20:45:58.730Z,0.00
2023-05-01T20:46:58.672Z,0.00
2023-05-01T20:47:58.759Z,0.00
2023-05-01T20:48:58.680Z,0.00
2023-05-01T20:49:59.082Z,0.00
2023-05-01T20:50:58.688Z,0.00
2023-05-01T20:51:58.745Z,0.00
2023-05-01T20:52:58.652Z,0.00
2023-05-01T20:53:58.662Z,0.00
2023-05-01T20:54:58.657Z,0.00
2023-05-01T20:55:58.687Z,0.00
2023-05-01T20:56:58.604Z,0.00
2023-05-01T20:57:58.659Z,0.00
2023-05-01T20:58:58.606Z,0.00
2023-05-01T20:59:58.803Z,0.00
2023-05-01T21:00:58.591Z,0.00
2023-05-01T21:01:58.585Z,0.00
2023-05-01T21:02:58.642Z,0.00
2023-05-01T21:03:58.695Z,0.00
2023-05-01T21:04:58.552Z,0.00
2023-05-01T21:05:58.575Z,0.00
2023-05-01T21:06:58.632Z,0.00
2023-05-01T21:07:58.553Z,0.00
2023-05-01T21:08:58.566Z,0.00
2023-05-01T21:09:58.673Z,0.00
2023-05-01T21:10:58.500Z,0.00
2023-05-01T21:11:58.513Z,0.00
2023-05-01T21:12:58.504Z,0.00
2023-05-01T21:13:58.522Z,0.00
2023-05-01T21:14:58.497Z,0.00
2023-05-01T21:15:58.552Z,0.00
2023-05-01T21:16:58.468Z,0.00
2023-05-01T21:17:58.482Z,0.00
2023-05-01T21:18:58.487Z,0.00
2023-05-01T21:19:58.712Z,0.00
2023-05-01T21:20:58.444Z,0.00
2023-05-01T21:21:58.431Z,0.00
2023-05-01T21:22:58.464Z,0.00
2023-05-01T21:23:58.412Z,0.00
2023-05-01T21:24:58.402Z,0.00
2023-05-01T21:25:58.445Z,0.00
2023-05-01T21:26:58.383Z,0.00
2023-05-01T21:27:58.383Z,0.00
2023-05-01T21:28:58.427Z,0.00
2023-05-01T21:29:58.728Z,0.00
2023-05-01T21:30:58.382Z,0.00
2023-05-01T21:31:58.477Z,0.00
2023-05-01T21:33:00.207Z,0.00
2023-05-01T21:33:58.410Z,0.00
2023-05-01T21:34:58.368Z,0.00
2023-05-01T21:35:58.318Z,0.00
2023-05-01T21:36:58.370Z,0.00
2023-05-01T21:37:58.328Z,0.00
2023-05-01T21:38:58.364Z,0.00
2023-05-01T21:39:58.636Z,0.00
2023-05-01T21:40:58.331Z,0.00
2023-05-01T21:41:58.300Z,0.00
2023-05-01T21:42:58.306Z,0.00
2023-05-01T21:43:58.285Z,0.00
2023-05-01T21:44:58.259Z,0.00
2023-05-01T21:45:58.289Z,0.00
2023-05-01T21:46:58.351Z,0.00
2023-05-01T21:47:58.234Z,0.00
2023-05-01T21:48:58.242Z,0.00
2023-05-01T21:49:58.473Z,0.00
2023-05-01T21:50:58.205Z,0.00
2023-05-01T21:51:58.270Z,0.00
2023-05-01T21:52:58.202Z,0.00
2023-05-01T21:53:58.235Z,0.00
2023-05-01T21:54:58.219Z,0.00
2023-05-01T21:55:58.190Z,0.00
2023-05-01T21:56:58.168Z,0.00
2023-05-01T21:57:58.195Z,0.00
2023-05-01T21:58:58.191Z,0.00
2023-05-01T21:59:58.464Z,0.00
2023-05-01T22:00:58.203Z,0.00
2023-05-01T22:01:58.167Z,0.00
2023-05-01T22:02:58.183Z,0.00
2023-05-01T22:03:58.229Z,0.00
2023-05-01T22:04:58.147Z,0.00
2023-05-01T22:05:58.188Z,0.00
2023-05-01T22:06:58.151Z,0.00
2023-05-01T22:07:58.127Z,0.00
2023-05-01T22:08:58.128Z,0.00
2023-05-01T22:09:58.176Z,0.00
2023-05-01T22:10:58.102Z,0.00
2023-05-01T22:11:58.114Z,0.00
2023-05-01T22:12:58.060Z,0.00
2023-05-01T22:13:58.120Z,0.00
2023-05-01T22:14:58.088Z,0.00
2023-05-01T22:15:58.024Z,0.00
2023-05-01T22:16:58.070Z,0.00
2023-05-01T22:17:58.064Z,0.00
2023-05-01T22:18:58.068Z,0.00
2023-05-01T22:19:58.233Z,0.00
2023-05-01T22:20:58.031Z,0.00
2023-05-01T22:21:57.989Z,0.00
2023-05-01T22:22:58.014Z,0.00
2023-05-01T22:23:58.019Z,0.00
2023-05-01T22:24:58.002Z,0.00
2023-05-01T22:25:57.955Z,0.00
2023-05-01T22:26:57.962Z,0.00
2023-05-01T22:27:58.010Z,0.00
2023-05-01T22:28:57.961Z,0.00
2023-05-01T22:29:58.154Z,0.00
2023-05-01T22:30:57.972Z,0.00
2023-05-01T22:31:57.973Z,0.00
2023-05-01T22:32:57.985Z,0.00
2023-05-01T22:33:58.104Z,0.00
2023-05-01T22:34:57.923Z,0.00
2023-05-01T22:35:57.936Z,0.00
2023-05-01T22:36:57.932Z,0.00
2023-05-01T22:37:57.884Z,0.00
2023-05-01T22:38:57.884Z,0.00
2023-05-01T22:39:58.097Z,0.00
2023-05-01T22:40:57.863Z,0.00
2023-05-01T22:41:57.863Z,0.00
2023-05-01T22:42:57.899Z,0.00
2023-05-01T22:43:57.839Z,0.00
2023-05-01T22:44:57.853Z,0.00
2023-05-01T22:45:57.848Z,0.00
2023-05-01T22:46:57.833Z,0.00
2023-05-01T22:47:57.866Z,0.00
2023-05-01T22:48:57.813Z,0.00
2023-05-01T22:49:57.985Z,0.00
2023-05-01T22:50:57.807Z,0.00
2023-05-01T22:51:57.824Z,0.00
2023-05-01T22:52:57.762Z,0.00
2023-05-01T22:53:57.822Z,0.00
2023-05-01T22:54:57.804Z,0.00
2023-05-01T22:55:57.758Z,0.00
2023-05-01T22:56:57.774Z,0.00
2023-05-01T22:57:57.787Z,0.00
2023-05-01T22:58:57.770Z,0.00
2023-05-01T22:59:57.921Z,0.00
2023-05-01T23:00:57.801Z,0.00
2023-05-01T23:01:57.822Z,0.00
2023-05-01T23:02:57.753Z,0.00
2023-05-01T23:03:57.997Z,0.00
2023-05-01T23:04:57.743Z,0.00
2023-05-01T23:05:57.675Z,0.00
2023-05-01T23:06:57.710Z,0.00
2023-05-01T23:07:57.663Z,0.00
2023-05-01T23:08:57.653Z,0.00
2023-05-01T23:09:57.841Z,0.00
2023-05-01T23:10:57.637Z,0.00
2023-05-01T23:11:57.656Z,0.00
2023-05-01T23:12:57.624Z,0.00
2023-05-01T23:13:57.646Z,0.00
2023-05-01T23:14:57.658Z,0.00
2023-05-01T23:15:57.734Z,0.00
2023-05-01T23:16:57.635Z,0.00
2023-05-01T23:17:57.678Z,0.00
2023-05-01T23:18:57.593Z,0.00
2023-05-01T23:19:57.743Z,0.00
2023-05-01T23:20:57.559Z,0.00
2023-05-01T23:21:57.581Z,0.00
2023-05-01T23:22:57.608Z,0.00
2023-05-01T23:23:57.536Z,0.00
2023-05-01T23:24:57.548Z,0.00
2023-05-01T23:25:57.572Z,0.00
2023-05-01T23:26:57.561Z,0.00
2023-05-01T23:27:57.551Z,0.00
2023-05-01T23:28:57.535Z,0.00
2023-05-01T23:29:58.348Z,0.00
2023-05-01T23:30:57.544Z,0.00
2023-05-01T23:31:57.634Z,0.00
2023-05-01T23:32:57.625Z,0.00
2023-05-01T23:33:57.597Z,0.00
2023-05-01T23:34:57.611Z,0.00
2023-05-01T23:35:57.538Z,0.00
2023-05-01T23:36:57.437Z,0.00
2023-05-01T23:37:57.502Z,0.00
2023-05-01T23:38:57.591Z,0.00
2023-05-01T23:40:02.654Z,0.00
2023-05-01T23:40:58.434Z,0.00
2023-05-01T23:41:57.472Z,0.00
2023-05-01T23:42:57.401Z,0.00
2023-05-01T23:43:57.421Z,0.00
2023-05-01T23:44:57.402Z,0.00
2023-05-01T23:45:57.490Z,0.00
2023-05-01T23:46:57.423Z,0.00
2023-05-01T23:47:57.402Z,0.00
2023-05-01T23:48:57.363Z,0.00
2023-05-01T23:49:57.626Z,0.00
2023-05-01T23:50:57.363Z,0.00
2023-05-01T23:51:57.369Z,0.00
2023-05-01T23:52:57.373Z,0.00
2023-05-01T23:53:57.308Z,0.00
2023-05-01T23:54:57.384Z,0.00
2023-05-01T23:55:57.382Z,0.00
2023-05-01T23:56:57.335Z,0.00
2023-05-01T23:57:57.313Z,0.00
2023-05-01T23:58:57.339Z,0.00
2023-05-01T23:59:57.465Z,0.00
